AKDT,Max TemperatureF,Mean TemperatureF,Min TemperatureF,Max Dew PointF,MeanDew PointF,Min DewpointF,Max Humidity, Mean Humidity, Min Humidity, Max Sea Level PressureIn, Mean Sea Level PressureIn, Min Sea Level PressureIn, Max VisibilityMiles, Mean VisibilityMiles, Min VisibilityMiles, Max Wind SpeedMPH, Mean Wind SpeedMPH, Max Gust SpeedMPH,PrecipitationIn, CloudCover, Events, WindDirDegrees
2013-8-1,72,62,53,54,53,50,93,76,57,30.08,30.01,29.94,10,10,10,22,5,30,0.00,0,,242
2013-8-2,68,60,53,55,53,50,90,78,63,30.06,30.01,29.97,10,10,10,23,4,30,0.00,0,,230
2013-8-3,70,61,53,55,53,50,93,76,59,30.13,30.08,30.03,10,10,10,20,5,,0.00,3,,228
2013-8-4,62,58,53,55,53,50,100,86,72,30.09,30.07,30.06,10,8,1,18,5,28,0.04,8,Rain,236
2013-8-5,63,56,51,55,53,50,100,94,78,30.07,30.04,30.03,10,3,0,15,1,,0.07,8,Fog-Rain,225
2013-8-6,70,61,53,55,53,51,100,86,57,30.10,30.05,29.94,10,7,1,25,2,29,0.00,6,,216
2013-8-7,72,62,53,52,51,49,89,74,48,30.01,29.96,29.89,10,10,10,17,3,24,0.00,1,,232
2013-8-8,62,58,53,56,54,50,100,87,77,30.00,29.96,29.92,10,7,0,16,1,21,0.14,7,Fog-Rain,217
2013-8-9,66,60,57,55,51,47,89,70,52,30.06,30.02,30.00,10,10,9,22,8,25,0.01,6,Rain,213
2013-8-10,66,58,52,50,49,47,83,71,54,30.09,30.04,29.98,10,10,10,23,7,,0.00,1,,242
2013-8-11,68,57,48,52,50,46,90,77,59,30.09,30.02,29.96,10,10,10,22,4,,0.00,0,,244
2013-8-12,72,62,52,53,51,49,90,73,47,30.01,29.98,29.94,10,10,10,17,3,18,0.00,0,,242
2013-8-13,72,60,52,54,52,49,93,75,58,30.02,29.98,29.92,10,10,10,22,6,32,0.00,0,,223
2013-8-14,68,60,55,55,53,51,88,77,63,29.99,29.87,29.74,10,10,10,21,3,,0.00,4,,227
2013-8-15,72,62,53,56,53,50,93,77,55,29.84,29.79,29.72,10,10,10,23,5,31,0.00,2,,219
2013-8-16,62,60,57,56,55,53,89,82,75,29.81,29.80,29.78,10,10,10,20,13,25,0.01,8,Rain,205
2013-8-17,62,56,53,54,53,51,94,88,75,29.79,29.72,29.61,10,9,1,10,1,,0.02,8,Rain,218
2013-8-18,61,56,51,54,51,47,100,85,64,29.70,29.63,29.60,10,7,1,24,4,29,0.14,8,Rain,202
2013-8-19,59,56,54,49,48,46,83,72,64,29.88,29.77,29.70,10,10,10,22,16,29,0.02,8,Rain,203
2013-8-20,61,58,55,51,49,48,84,72,64,30.05,30.00,29.90,10,10,7,25,20,31,0.02,8,Rain,203
2013-8-21,60,58,55,50,48,46,83,71,64,30.04,29.95,29.84,10,10,10,21,15,30,0.03,8,,202
2013-8-22,60,57,54,52,49,46,88,75,62,29.84,29.82,29.80,10,10,4,21,9,28,0.06,8,Rain,202
2013-8-23,60,57,55,50,48,47,80,71,64,29.80,29.69,29.60,10,10,10,21,16,29,0.00,8,Rain,203
2013-8-24,57,54,51,54,51,48,94,89,77,29.69,29.63,29.55,10,7,2,17,6,23,0.57,8,Rain,224
2013-8-25,59,54,51,54,51,48,100,91,78,29.78,29.73,29.69,10,7,1,21,1,28,0.02,8,Rain,235
2013-8-26,60,55,51,55,52,50,94,91,81,29.80,29.78,29.75,10,10,5,4,1,,0.03,8,Rain,13
2013-8-27,75,62,50,52,49,46,94,75,38,29.86,29.76,29.74,10,9,2,14,2,18,0.01,3,Rain,207
2013-8-28,61,56,51,54,52,50,100,92,75,29.89,29.88,29.86,10,5,0,5,1,,0.04,8,Fog-Rain,210
2013-8-29,66,57,50,51,49,47,96,82,58,29.87,29.82,29.76,10,10,8,6,2,,0.00,2,,230
2013-8-30,63,55,48,54,50,45,94,83,62,30.01,29.92,29.81,10,10,9,18,5,29,0.04,4,Rain,272
2013-8-31,61,59,57,54,53,53,88,81,75,30.00,29.96,29.85,10,10,10,21,13,26,0.00,8,Rain,202